Time;durP1;ratioP1;P1;durP2;ratioP2;P2;SDS_P1;SDS_P2;PMS_P1;PMS_P2;Temp;Humidity;BMP_temperature;BMP_pressure;BME280_temperature;BME280_humidity;BME280_pressure;Samples;Min_cycle;Max_cycle;Signal;HPM_P1;HPM_P2
2023/10/07 00:01:40;;;;;;;12.10;4.33;;;;;;;;;;5074109;28;20213;-87
2023/10/07 00:04:09;;;;;;;8.80;3.17;;;;;;;;;;5073659;28;20234;-87
2023/10/07 00:06:38;;;;;;;9.13;3.37;;;;;;;;;;5073899;28;20193;-84
2023/10/07 00:09:10;;;;;;;7.47;2.37;;;;;;;;;;5073448;28;20206;-84
2023/10/07 00:11:39;;;;;;;6.83;3.37;;;;;;;;;;5073566;28;20251;-85
2023/10/07 00:14:09;;;;;;;5.53;2.87;;;;;;;;;;5072950;28;20205;-84
2023/10/07 00:16:43;;;;;;;7.57;3.50;;;;;;;;;;5073244;28;20333;-87
2023/10/07 00:19:13;;;;;;;11.63;3.33;;;;;;;;;;5074033;28;20217;-86
2023/10/07 00:21:58;;;;;;;6.67;2.43;;;;;;;;;;5073298;28;20300;-84
2023/10/07 00:24:32;;;;;;;5.67;2.70;;;;;;;;;;5072549;28;20241;-84
2023/10/07 00:27:01;;;;;;;7.13;2.70;;;;;;;;;;5073164;28;20292;-84
2023/10/07 00:29:39;;;;;;;5.30;2.47;;;;;;;;;;5073446;28;20205;-84
2023/10/07 00:32:10;;;;;;;14.87;3.00;;;;;;;;;;5072827;28;20193;-84
2023/10/07 00:34:41;;;;;;;14.77;6.23;;;;;;;;;;5072645;28;20202;-84
2023/10/07 00:37:10;;;;;;;5.90;3.23;;;;;;;;;;5072788;28;20198;-84
2023/10/07 00:39:39;;;;;;;10.93;4.23;;;;;;;;;;5073333;28;20202;-84
2023/10/07 00:42:10;;;;;;;7.30;3.57;;;;;;;;;;5072689;28;20224;-84
2023/10/07 00:44:39;;;;;;;15.33;5.50;;;;;;;;;;5073250;28;20251;-85
2023/10/07 00:47:13;;;;;;;18.97;4.43;;;;;;;;;;5072503;28;20206;-84
2023/10/07 00:49:50;;;;;;;20.90;3.30;;;;;;;;;;5072587;28;20220;-85
2023/10/07 00:52:27;;;;;;;9.07;3.03;;;;;;;;;;5072497;28;20208;-84
2023/10/07 00:55:08;;;;;;;10.57;2.97;;;;;;;;;;5072379;28;20240;-84
2023/10/07 00:57:37;;;;;;;7.97;3.90;;;;;;;;;;5072985;28;20201;-84
2023/10/07 01:00:30;;;;;;;5.43;2.53;;;;;;;;;;5072128;28;20213;-84
2023/10/07 01:03:13;;;;;;;9.00;3.60;;;;;;;;;;5072493;28;20197;-84
2023/10/07 01:05:53;;;;;;;8.63;2.20;;;;;;;;;;5072591;28;20202;-87
2023/10/07 01:08:27;;;;;;;5.67;3.00;;;;;;;;;;5073479;28;20198;-87
2023/10/07 01:11:06;;;;;;;12.57;3.23;;;;;;;;;;5072498;28;20212;-87
2023/10/07 01:13:44;;;;;;;6.07;2.83;;;;;;;;;;5072625;28;20201;-84
2023/10/07 01:16:19;;;;;;;10.20;2.73;;;;;;;;;;5071955;28;20224;-84
2023/10/07 01:18:49;;;;;;;5.03;2.97;;;;;;;;;;5072313;28;20267;-87
2023/10/07 01:21:31;;;;;;;13.50;4.37;;;;;;;;;;5072242;28;20198;-87
2023/10/07 01:24:05;;;;;;;11.77;5.03;;;;;;;;;;5072390;28;20225;-87
2023/10/07 01:26:41;;;;;;;11.70;3.63;;;;;;;;;;5073175;28;20198;-87
2023/10/07 01:29:16;;;;;;;6.83;2.87;;;;;;;;;;5070983;28;20198;-84
2023/10/07 01:31:59;;;;;;;8.43;3.03;;;;;;;;;;5072174;28;20201;-84
2023/10/07 01:34:30;;;;;;;8.73;2.93;;;;;;;;;;5072231;28;20290;-85
2023/10/07 01:37:00;;;;;;;7.50;2.90;;;;;;;;;;5072041;28;20284;-84
2023/10/07 01:39:40;;;;;;;9.30;3.93;;;;;;;;;;5071902;28;20197;-84
2023/10/07 01:42:23;;;;;;;12.20;5.23;;;;;;;;;;5071857;28;20202;-84
2023/10/07 01:44:56;;;;;;;10.80;3.63;;;;;;;;;;5071962;28;20197;-84
2023/10/07 01:47:29;;;;;;;7.37;3.23;;;;;;;;;;5072009;28;20201;-84
2023/10/07 01:49:58;;;;;;;8.43;4.70;;;;;;;;;;5071801;28;20217;-84
2023/10/07 01:52:27;;;;;;;11.90;3.37;;;;;;;;;;5071810;28;20205;-84
2023/10/07 01:54:58;;;;;;;12.27;4.57;;;;;;;;;;5071753;28;20251;-85
2023/10/07 01:57:27;;;;;;;10.27;2.50;;;;;;;;;;5071071;28;20217;-84
2023/10/07 01:59:58;;;;;;;7.07;3.13;;;;;;;;;;5074531;28;20210;-86
2023/10/07 02:02:26;;;;;;;10.73;3.53;;;;;;;;;;5076197;28;20202;-84
2023/10/07 02:04:56;;;;;;;10.03;4.23;;;;;;;;;;5076287;28;20198;-87
2023/10/07 02:07:25;;;;;;;6.77;2.37;;;;;;;;;;5075875;28;20198;-87
2023/10/07 02:09:57;;;;;;;5.30;2.13;;;;;;;;;;5076074;28;20207;-87
2023/10/07 02:12:32;;;;;;;16.87;5.57;;;;;;;;;;5075708;28;20227;-87
2023/10/07 02:15:19;;;;;;;9.50;3.27;;;;;;;;;;5075314;28;20254;-87
2023/10/07 02:17:48;;;;;;;5.93;2.10;;;;;;;;;;5076118;28;20219;-87
2023/10/07 02:20:28;;;;;;;4.77;2.17;;;;;;;;;;5076490;28;20236;-88
2023/10/07 02:22:56;;;;;;;13.33;3.53;;;;;;;;;;5076063;28;20209;-87
2023/10/07 02:25:29;;;;;;;7.33;3.27;;;;;;;;;;5075150;28;20193;-87
2023/10/07 02:27:59;;;;;;;8.40;2.77;;;;;;;;;;5076283;28;20277;-87
2023/10/07 02:30:27;;;;;;;5.40;3.13;;;;;;;;;;5076154;28;20209;-87
2023/10/07 02:32:56;;;;;;;17.33;2.93;;;;;;;;;;5076364;28;20208;-87
2023/10/07 02:35:30;;;;;;;11.03;3.77;;;;;;;;;;5074991;28;20299;-87
2023/10/07 02:38:03;;;;;;;5.07;2.63;;;;;;;;;;5075600;28;20225;-87
2023/10/07 02:40:36;;;;;;;7.30;3.47;;;;;;;;;;5075574;28;20224;-87
2023/10/07 02:43:08;;;;;;;9.23;4.43;;;;;;;;;;5075349;28;20202;-87
2023/10/07 02:45:42;;;;;;;15.30;5.03;;;;;;;;;;5075135;28;20209;-87
2023/10/07 02:48:11;;;;;;;14.70;5.13;;;;;;;;;;5075326;28;20208;-87
2023/10/07 02:50:41;;;;;;;6.97;3.77;;;;;;;;;;5075318;28;20266;-86
2023/10/07 02:53:14;;;;;;;10.03;4.40;;;;;;;;;;5075143;28;20251;-87
2023/10/07 02:55:48;;;;;;;14.90;5.67;;;;;;;;;;5075499;28;20198;-87
2023/10/07 02:58:27;;;;;;;3.77;2.17;;;;;;;;;;5075596;28;20205;-87
2023/10/07 03:01:10;;;;;;;10.13;5.67;;;;;;;;;;5074744;28;20218;-84
2023/10/07 03:03:48;;;;;;;6.70;3.10;;;;;;;;;;5074679;28;20209;-84
2023/10/07 03:06:18;;;;;;;8.63;3.93;;;;;;;;;;5074398;28;20193;-84
2023/10/07 03:08:57;;;;;;;15.93;4.30;;;;;;;;;;5075234;28;20202;-84
2023/10/07 03:11:39;;;;;;;4.90;2.10;;;;;;;;;;5074188;28;20201;-84
2023/10/07 03:14:13;;;;;;;14.63;4.00;;;;;;;;;;5074037;28;20206;-85
2023/10/07 03:16:46;;;;;;;18.17;4.57;;;;;;;;;;5074829;28;20218;-84
2023/10/07 03:19:22;;;;;;;7.03;2.10;;;;;;;;;;5074565;28;20223;-84
2023/10/07 03:22:09;;;;;;;6.20;3.93;;;;;;;;;;5074023;28;20237;-84
2023/10/07 03:24:48;;;;;;;9.83;3.73;;;;;;;;;;5073680;28;20238;-84
2023/10/07 03:27:25;;;;;;;11.90;4.50;;;;;;;;;;5074564;28;20211;-85
2023/10/07 03:30:12;;;;;;;8.13;3.07;;;;;;;;;;5073856;28;20190;-84
2023/10/07 03:32:57;;;;;;;5.00;2.93;;;;;;;;;;5074107;28;20230;-84
2023/10/07 03:35:59;;;;;;;11.47;3.33;;;;;;;;;;5073822;28;20253;-85
2023/10/07 03:38:26;;;;;;;4.20;2.80;;;;;;;;;;5074030;28;20233;-84
2023/10/07 03:40:55;;;;;;;7.20;3.07;;;;;;;;;;5073971;28;20201;-84
2023/10/07 03:43:26;;;;;;;5.00;2.63;;;;;;;;;;5074150;28;20225;-83
2023/10/07 03:45:56;;;;;;;7.67;3.17;;;;;;;;;;5073898;28;20216;-85
2023/10/07 03:48:30;;;;;;;6.53;3.47;;;;;;;;;;5074203;28;20193;-84
2023/10/07 03:51:07;;;;;;;2.90;1.77;;;;;;;;;;5073498;28;20256;-85
2023/10/07 03:53:44;;;;;;;4.83;2.80;;;;;;;;;;5074220;28;20235;-84
2023/10/07 03:56:13;;;;;;;9.00;3.43;;;;;;;;;;5074026;28;20198;-84
2023/10/07 03:58:43;;;;;;;9.17;3.23;;;;;;;;;;5073355;28;20522;-85
2023/10/07 04:01:16;;;;;;;5.67;2.40;;;;;;;;;;5073506;28;20213;-84
2023/10/07 04:03:47;;;;;;;2.23;1.93;;;;;;;;;;5073747;28;20200;-84
2023/10/07 04:06:17;;;;;;;5.27;2.90;;;;;;;;;;5073418;28;20260;-84
2023/10/07 04:08:52;;;;;;;4.50;1.83;;;;;;;;;;5073499;28;20240;-85
2023/10/07 04:11:26;;;;;;;7.00;2.90;;;;;;;;;;5073529;28;20205;-84
2023/10/07 04:13:55;;;;;;;1.97;1.47;;;;;;;;;;5073687;28;20288;-85
2023/10/07 04:16:29;;;;;;;2.83;2.10;;;;;;;;;;5073530;28;20222;-84
2023/10/07 04:19:06;;;;;;;7.70;3.33;;;;;;;;;;5072317;28;20231;-84
2023/10/07 04:21:39;;;;;;;7.47;2.57;;;;;;;;;;5072631;28;20197;-84
2023/10/07 04:24:10;;;;;;;7.23;3.70;;;;;;;;;;5073257;28;20229;-85
2023/10/07 04:26:40;;;;;;;4.27;2.87;;;;;;;;;;5073049;28;20194;-85
2023/10/07 04:29:14;;;;;;;10.73;2.90;;;;;;;;;;5072573;28;20240;-84
2023/10/07 04:31:47;;;;;;;6.03;2.03;;;;;;;;;;5073402;28;20197;-84
2023/10/07 04:34:18;;;;;;;1.37;0.93;;;;;;;;;;5072777;28;20252;-84
2023/10/07 04:37:10;;;;;;;6.70;3.80;;;;;;;;;;5072739;28;20205;-84
2023/10/07 04:40:27;;;;;;;6.07;3.50;;;;;;;;;;5072947;28;20205;-85
2023/10/07 04:42:36;;;;;;;4.37;2.83;;;;;;;;;;5072799;28;20210;-84
2023/10/07 04:45:22;;;;;;;10.87;4.07;;;;;;;;;;5072435;28;20201;-85
2023/10/07 04:47:57;;;;;;;11.83;3.53;;;;;;;;;;5072856;28;20224;-84
2023/10/07 04:50:34;;;;;;;4.53;1.80;;;;;;;;;;5072844;28;20201;-85
2023/10/07 04:53:03;;;;;;;14.67;4.17;;;;;;;;;;5072877;28;20201;-84
2023/10/07 04:55:32;;;;;;;10.07;2.70;;;;;;;;;;5072576;28;20207;-84
2023/10/07 04:58:03;;;;;;;9.67;3.43;;;;;;;;;;5072427;28;20214;-85
2023/10/07 05:00:41;;;;;;;6.13;2.70;;;;;;;;;;5072785;28;20205;-84
2023/10/07 05:03:14;;;;;;;4.83;2.90;;;;;;;;;;5072638;28;20215;-84
2023/10/07 05:05:44;;;;;;;7.23;2.97;;;;;;;;;;5072381;28;20228;-84
2023/10/07 05:08:17;;;;;;;2.77;2.57;;;;;;;;;;5072267;28;20377;-84
2023/10/07 05:10:52;;;;;;;6.00;3.83;;;;;;;;;;5072279;28;20198;-85
2023/10/07 05:13:24;;;;;;;7.93;3.43;;;;;;;;;;5072614;28;20233;-84
2023/10/07 05:15:52;;;;;;;3.93;2.33;;;;;;;;;;5070647;28;20206;-85
2023/10/07 05:18:22;;;;;;;12.00;3.97;;;;;;;;;;5071952;28;20227;-85
2023/10/07 05:20:51;;;;;;;11.40;4.80;;;;;;;;;;5072281;28;20202;-84
2023/10/07 05:23:22;;;;;;;8.40;3.30;;;;;;;;;;5071517;28;20298;-84
2023/10/07 05:25:51;;;;;;;8.00;2.97;;;;;;;;;;5071303;28;20194;-84
2023/10/07 05:28:21;;;;;;;6.17;2.60;;;;;;;;;;5072138;28;20201;-87
2023/10/07 05:30:54;;;;;;;12.57;3.20;;;;;;;;;;5072468;28;20228;-87
2023/10/07 05:33:25;;;;;;;4.03;2.10;;;;;;;;;;5072238;28;20281;-87
2023/10/07 05:35:59;;;;;;;6.00;1.93;;;;;;;;;;5071941;28;20241;-87
2023/10/07 05:38:28;;;;;;;7.90;2.60;;;;;;;;;;5072652;28;20217;-87
2023/10/07 05:41:00;;;;;;;1.07;1.00;;;;;;;;;;5072482;28;20275;-87
2023/10/07 05:43:29;;;;;;;6.30;1.67;;;;;;;;;;5072370;28;20193;-87
2023/10/07 05:46:00;;;;;;;7.80;2.77;;;;;;;;;;5072108;28;20208;-87
2023/10/07 05:48:30;;;;;;;5.70;3.27;;;;;;;;;;5072298;28;20186;-87
2023/10/07 05:50:59;;;;;;;5.40;2.97;;;;;;;;;;5072703;28;20205;-87
2023/10/07 05:53:28;;;;;;;13.10;4.67;;;;;;;;;;5072110;28;20225;-87
2023/10/07 05:55:57;;;;;;;9.93;3.47;;;;;;;;;;5072342;28;20205;-87
2023/10/07 05:58:27;;;;;;;10.70;3.57;;;;;;;;;;5072080;28;20228;-87
2023/10/07 06:00:58;;;;;;;11.87;2.63;;;;;;;;;;5072613;28;20215;-87
2023/10/07 06:03:28;;;;;;;8.93;2.97;;;;;;;;;;5072158;28;20197;-87
2023/10/07 06:05:58;;;;;;;6.13;2.20;;;;;;;;;;5071970;28;20216;-87
2023/10/07 06:08:27;;;;;;;3.13;1.53;;;;;;;;;;5071925;28;20201;-87
2023/10/07 06:10:56;;;;;;;9.13;3.60;;;;;;;;;;5071809;28;20245;-87
2023/10/07 06:13:26;;;;;;;7.40;2.43;;;;;;;;;;5071687;28;20190;-87
2023/10/07 06:15:55;;;;;;;3.83;3.53;;;;;;;;;;5071997;28;20190;-87
2023/10/07 06:18:25;;;;;;;8.47;3.77;;;;;;;;;;5072251;28;20229;-87
2023/10/07 06:20:54;;;;;;;5.77;2.63;;;;;;;;;;5071901;28;20296;-87
2023/10/07 06:23:24;;;;;;;9.53;2.50;;;;;;;;;;5071769;28;20241;-87
2023/10/07 06:25:53;;;;;;;2.00;1.33;;;;;;;;;;5072372;28;20272;-87
2023/10/07 06:28:35;;;;;;;6.13;2.47;;;;;;;;;;5071956;28;20195;-85
2023/10/07 06:31:10;;;;;;;1.93;1.07;;;;;;;;;;5070932;28;20206;-85
2023/10/07 06:33:40;;;;;;;6.80;2.50;;;;;;;;;;5071929;28;20226;-85
2023/10/07 06:36:10;;;;;;;10.10;4.13;;;;;;;;;;5071575;28;20215;-84
2023/10/07 06:38:46;;;;;;;7.63;5.80;;;;;;;;;;5071637;28;20214;-84
2023/10/07 06:41:14;;;;;;;3.93;1.83;;;;;;;;;;5070783;28;20212;-84
2023/10/07 06:43:47;;;;;;;2.53;1.17;;;;;;;;;;5071803;28;20209;-85
2023/10/07 06:46:16;;;;;;;7.00;2.87;;;;;;;;;;5074667;28;20200;-84
2023/10/07 06:48:48;;;;;;;2.63;1.47;;;;;;;;;;5075031;28;20232;-85
2023/10/07 06:51:17;;;;;;;6.60;3.23;;;;;;;;;;5074449;28;20206;-85
2023/10/07 06:53:47;;;;;;;8.23;3.60;;;;;;;;;;5074714;28;20301;-85
2023/10/07 06:56:20;;;;;;;9.67;2.07;;;;;;;;;;5074926;28;20199;-85
2023/10/07 06:58:53;;;;;;;4.27;2.10;;;;;;;;;;5073913;28;20216;-85
2023/10/07 07:01:49;;;;;;;8.13;4.77;;;;;;;;;;5075146;28;20203;-87
2023/10/07 07:04:22;;;;;;;9.00;2.93;;;;;;;;;;5075079;28;20200;-87
2023/10/07 07:07:09;;;;;;;2.77;2.53;;;;;;;;;;5075697;28;20202;-87
2023/10/07 07:09:57;;;;;;;9.30;2.87;;;;;;;;;;5075575;28;20205;-87
2023/10/07 07:12:26;;;;;;;8.10;4.63;;;;;;;;;;5075513;28;20199;-87
2023/10/07 07:15:04;;;;;;;3.43;2.03;;;;;;;;;;5075319;28;20207;-87
2023/10/07 07:17:36;;;;;;;18.13;3.87;;;;;;;;;;5074773;28;20238;-87
2023/10/07 07:22:52;;;;;;;3.23;2.13;;;;;;;;;;5075141;28;20202;-87
2023/10/07 07:25:29;;;;;;;7.03;3.00;;;;;;;;;;5074834;28;20252;-87
2023/10/07 07:28:01;;;;;;;7.20;3.70;;;;;;;;;;5074317;28;20201;-87
2023/10/07 07:30:29;;;;;;;18.23;2.47;;;;;;;;;;5075147;28;20202;-87
2023/10/07 07:33:06;;;;;;;9.90;3.83;;;;;;;;;;5075045;28;20267;-87
2023/10/07 07:35:40;;;;;;;10.37;3.40;;;;;;;;;;5074933;28;20204;-87
2023/10/07 07:38:26;;;;;;;11.43;3.33;;;;;;;;;;5074471;28;20200;-87
2023/10/07 07:41:05;;;;;;;5.33;2.73;;;;;;;;;;5075337;28;20207;-87
2023/10/07 07:43:35;;;;;;;2.40;2.20;;;;;;;;;;5075037;28;20206;-87
2023/10/07 07:46:17;;;;;;;13.37;4.07;;;;;;;;;;5074204;28;20208;-87
2023/10/07 07:48:48;;;;;;;7.90;3.63;;;;;;;;;;5074792;28;20195;-88
2023/10/07 07:51:17;;;;;;;7.60;3.10;;;;;;;;;;5075156;28;20264;-87
2023/10/07 07:53:46;;;;;;;11.37;4.83;;;;;;;;;;5074244;28;20215;-84
2023/10/07 07:56:16;;;;;;;7.80;3.50;;;;;;;;;;5072074;28;20202;-85
2023/10/07 07:58:47;;;;;;;6.37;3.07;;;;;;;;;;5073548;28;20257;-84
2023/10/07 08:01:18;;;;;;;3.20;2.83;;;;;;;;;;5073879;28;20202;-84
2023/10/07 08:03:47;;;;;;;9.80;2.57;;;;;;;;;;5073745;28;20422;-85
2023/10/07 08:06:20;;;;;;;16.93;3.23;;;;;;;;;;5073189;28;20229;-85
2023/10/07 08:08:53;;;;;;;4.60;2.27;;;;;;;;;;5074086;28;20249;-84
2023/10/07 08:11:23;;;;;;;13.90;4.77;;;;;;;;;;5074107;28;20350;-88
2023/10/07 08:13:53;;;;;;;15.53;4.30;;;;;;;;;;5074186;28;20197;-87
2023/10/07 08:16:22;;;;;;;9.03;3.77;;;;;;;;;;5073960;28;20202;-87
2023/10/07 08:18:56;;;;;;;9.00;2.83;;;;;;;;;;5074138;28;20290;-87
2023/10/07 08:21:29;;;;;;;5.57;2.97;;;;;;;;;;5074102;28;20210;-87
2023/10/07 08:24:01;;;;;;;6.13;2.67;;;;;;;;;;5073044;28;20233;-87
2023/10/07 08:26:34;;;;;;;11.83;4.10;;;;;;;;;;5073801;28;20203;-87
2023/10/07 08:29:04;;;;;;;6.57;3.20;;;;;;;;;;5073789;28;20205;-87
2023/10/07 08:31:39;;;;;;;8.03;2.10;;;;;;;;;;5074139;28;20229;-87
2023/10/07 08:34:13;;;;;;;14.10;5.33;;;;;;;;;;5073365;28;20196;-87
2023/10/07 08:36:47;;;;;;;7.30;3.23;;;;;;;;;;5073525;28;20205;-87
2023/10/07 08:39:18;;;;;;;10.70;3.50;;;;;;;;;;5073737;28;20226;-87
2023/10/07 08:41:52;;;;;;;8.20;3.50;;;;;;;;;;5073279;28;20210;-87
2023/10/07 08:44:29;;;;;;;6.83;4.10;;;;;;;;;;5074409;28;20237;-87
2023/10/07 08:47:04;;;;;;;5.10;2.50;;;;;;;;;;5074184;28;20254;-87
2023/10/07 08:49:35;;;;;;;12.73;3.50;;;;;;;;;;5073628;28;20226;-87
2023/10/07 08:52:08;;;;;;;5.57;2.27;;;;;;;;;;5073039;28;20227;-87
2023/10/07 08:54:38;;;;;;;16.93;3.30;;;;;;;;;;5073083;28;20236;-87
2023/10/07 08:57:15;;;;;;;6.37;3.03;;;;;;;;;;5073406;28;20297;-87
2023/10/07 08:59:49;;;;;;;10.87;5.00;;;;;;;;;;5073589;28;20219;-87
2023/10/07 09:02:26;;;;;;;7.57;4.30;;;;;;;;;;5072309;28;20206;-85
2023/10/07 09:04:57;;;;;;;13.87;4.97;;;;;;;;;;5072581;28;20208;-85
2023/10/07 09:07:31;;;;;;;14.87;5.23;;;;;;;;;;5072385;28;20300;-84
2023/10/07 09:10:10;;;;;;;9.13;4.47;;;;;;;;;;5072330;28;20461;-85
2023/10/07 09:12:46;;;;;;;9.17;4.60;;;;;;;;;;5072795;28;20203;-84
2023/10/07 09:15:25;;;;;;;8.47;3.30;;;;;;;;;;5072038;28;20299;-85
2023/10/07 09:18:02;;;;;;;13.50;4.43;;;;;;;;;;5072842;28;20207;-84
2023/10/07 09:20:31;;;;;;;8.30;3.97;;;;;;;;;;5071559;28;20227;-85
2023/10/07 09:23:15;;;;;;;7.30;3.00;;;;;;;;;;5068008;28;20278;-85
2023/10/07 09:25:46;;;;;;;4.53;2.90;;;;;;;;;;5070455;28;20231;-85
2023/10/07 09:28:18;;;;;;;6.43;3.37;;;;;;;;;;5072855;28;20205;-85
2023/10/07 09:30:49;;;;;;;3.93;1.93;;;;;;;;;;5061724;28;20274;-85
2023/10/07 09:33:18;;;;;;;5.23;2.87;;;;;;;;;;5069809;28;20201;-85
2023/10/07 09:35:48;;;;;;;5.33;3.03;;;;;;;;;;5071560;28;20211;-85
2023/10/07 09:38:28;;;;;;;3.67;2.33;;;;;;;;;;5065309;28;20205;-87
2023/10/07 09:41:12;;;;;;;4.77;2.33;;;;;;;;;;5067385;28;20308;-87
2023/10/07 09:43:47;;;;;;;8.43;2.73;;;;;;;;;;5066458;28;20215;-87
2023/10/07 09:46:24;;;;;;;8.33;2.23;;;;;;;;;;5067922;28;20217;-87
2023/10/07 09:48:57;;;;;;;8.50;3.53;;;;;;;;;;5065820;28;20246;-86
2023/10/07 09:51:28;;;;;;;7.13;2.67;;;;;;;;;;5067975;28;20263;-86
2023/10/07 09:54:16;;;;;;;13.77;3.33;;;;;;;;;;5068038;28;20206;-87
2023/10/07 09:56:58;;;;;;;12.80;3.03;;;;;;;;;;5067161;28;20194;-87
2023/10/07 09:59:32;;;;;;;10.20;3.43;;;;;;;;;;5064276;28;20215;-87
2023/10/07 10:02:16;;;;;;;9.30;3.17;;;;;;;;;;5067541;28;20212;-87
2023/10/07 10:04:50;;;;;;;4.60;3.37;;;;;;;;;;5067010;28;20279;-88
2023/10/07 10:07:39;;;;;;;21.80;3.43;;;;;;;;;;5066801;28;20210;-86
2023/10/07 10:10:14;;;;;;;7.60;2.07;;;;;;;;;;5058827;28;20203;-87
2023/10/07 10:12:56;;;;;;;10.93;4.40;;;;;;;;;;5067181;28;20209;-87
2023/10/07 10:15:50;;;;;;;8.97;4.47;;;;;;;;;;5067105;28;20232;-87
2023/10/07 10:18:43;;;;;;;6.07;2.83;;;;;;;;;;5066476;28;20201;-86
2023/10/07 10:21:12;;;;;;;8.50;4.00;;;;;;;;;;5064175;28;20229;-87
2023/10/07 10:23:44;;;;;;;9.50;4.33;;;;;;;;;;5073452;28;20246;-87
2023/10/07 10:26:20;;;;;;;9.03;2.97;;;;;;;;;;5071538;28;20292;-86
2023/10/07 10:29:04;;;;;;;10.80;4.00;;;;;;;;;;5067029;28;20234;-86
2023/10/07 10:31:35;;;;;;;2.73;2.37;;;;;;;;;;5069527;28;20211;-86
2023/10/07 10:34:08;;;;;;;11.87;5.30;;;;;;;;;;5071699;28;20229;-87
2023/10/07 10:36:43;;;;;;;8.03;3.27;;;;;;;;;;5068699;28;20205;-86
2023/10/07 10:39:18;;;;;;;12.87;4.40;;;;;;;;;;5069824;28;20238;-87
2023/10/07 10:42:13;;;;;;;8.63;3.30;;;;;;;;;;5070221;28;20279;-87
2023/10/07 10:44:47;;;;;;;12.87;3.60;;;;;;;;;;5068301;28;20195;-87
2023/10/07 10:47:21;;;;;;;7.43;4.67;;;;;;;;;;5067668;28;20217;-85
2023/10/07 10:49:54;;;;;;;6.13;3.80;;;;;;;;;;5069504;28;20218;-83
2023/10/07 10:52:24;;;;;;;13.70;4.40;;;;;;;;;;5063353;28;20204;-84
2023/10/07 10:54:52;;;;;;;11.47;3.60;;;;;;;;;;5073281;28;20211;-84
2023/10/07 10:57:24;;;;;;;8.20;3.07;;;;;;;;;;5067277;28;20242;-83
2023/10/07 10:59:52;;;;;;;9.80;3.67;;;;;;;;;;5066883;28;20304;-86
2023/10/07 11:02:22;;;;;;;7.40;3.17;;;;;;;;;;5064154;28;20292;-86
2023/10/07 11:04:52;;;;;;;3.20;2.17;;;;;;;;;;5068977;28;20210;-87
2023/10/07 11:07:21;;;;;;;10.10;3.83;;;;;;;;;;5066210;28;20257;-87
2023/10/07 11:09:51;;;;;;;5.47;2.60;;;;;;;;;;5065232;28;20225;-90
2023/10/07 11:12:28;;;;;;;19.37;6.90;;;;;;;;;;5069726;28;20407;-88
2023/10/07 11:15:07;;;;;;;6.43;3.17;;;;;;;;;;5062670;28;20210;-87
2023/10/07 11:17:41;;;;;;;6.20;2.33;;;;;;;;;;5066956;28;20629;-86
2023/10/07 11:20:12;;;;;;;7.43;4.13;;;;;;;;;;5066135;28;20237;-88
2023/10/07 11:22:43;;;;;;;7.23;3.03;;;;;;;;;;5066105;28;20205;-85
2023/10/07 11:25:14;;;;;;;6.60;3.60;;;;;;;;;;5064313;28;20268;-86
2023/10/07 11:27:45;;;;;;;2.93;2.23;;;;;;;;;;5070022;28;20246;-84
2023/10/07 11:30:14;;;;;;;11.70;4.60;;;;;;;;;;5068748;28;20292;-85
2023/10/07 11:32:47;;;;;;;6.33;2.90;;;;;;;;;;5070218;28;20208;-86
2023/10/07 11:35:20;;;;;;;4.60;2.83;;;;;;;;;;5074194;28;20758;-86
2023/10/07 11:37:49;;;;;;;3.80;2.83;;;;;;;;;;5069074;28;20215;-86
2023/10/07 11:40:19;;;;;;;10.87;5.33;;;;;;;;;;5068952;28;20252;-86
2023/10/07 11:42:48;;;;;;;8.73;4.00;;;;;;;;;;5068045;28;20225;-86
2023/10/07 11:45:17;;;;;;;12.37;6.00;;;;;;;;;;5065358;28;20194;-86
2023/10/07 11:47:49;;;;;;;6.00;3.43;;;;;;;;;;5066978;28;20205;-86
2023/10/07 11:50:18;;;;;;;12.03;4.23;;;;;;;;;;5066861;28;20213;-86
2023/10/07 11:52:47;;;;;;;1.27;1.17;;;;;;;;;;5067333;28;20200;-85
2023/10/07 11:55:17;;;;;;;8.13;2.97;;;;;;;;;;5072199;28;20275;-84
2023/10/07 11:57:45;;;;;;;9.50;3.50;;;;;;;;;;5069935;28;20229;-87
2023/10/07 12:00:23;;;;;;;13.93;4.13;;;;;;;;;;5065744;28;20301;-86
2023/10/07 12:02:57;;;;;;;5.97;3.03;;;;;;;;;;5068137;28;20227;-87
2023/10/07 12:05:27;;;;;;;3.40;1.77;;;;;;;;;;5070504;28;20262;-86
2023/10/07 12:07:59;;;;;;;5.30;2.80;;;;;;;;;;5072965;28;20293;-86
2023/10/07 12:10:33;;;;;;;3.93;2.40;;;;;;;;;;5067804;28;20206;-86
2023/10/07 12:13:03;;;;;;;7.47;3.17;;;;;;;;;;5071452;28;20206;-86
2023/10/07 12:15:31;;;;;;;6.33;2.60;;;;;;;;;;5073958;28;20291;-85
2023/10/07 12:18:06;;;;;;;7.23;4.63;;;;;;;;;;5073084;28;20206;-86
2023/10/07 12:20:35;;;;;;;8.93;5.87;;;;;;;;;;5072212;28;20213;-85
2023/10/07 12:23:04;;;;;;;11.47;3.97;;;;;;;;;;5072720;28;20246;-84
2023/10/07 12:25:32;;;;;;;12.30;5.60;;;;;;;;;;5070423;28;20365;-84
2023/10/07 12:28:05;;;;;;;1.73;1.60;;;;;;;;;;5065416;28;20227;-84
2023/10/07 12:30:34;;;;;;;6.93;2.97;;;;;;;;;;5072098;28;20204;-84
2023/10/07 12:33:02;;;;;;;11.77;5.80;;;;;;;;;;5066191;28;20219;-84
2023/10/07 12:35:33;;;;;;;3.70;2.47;;;;;;;;;;5061230;28;20413;-84
2023/10/07 12:38:02;;;;;;;8.53;5.00;;;;;;;;;;5070179;28;20206;-84
2023/10/07 12:40:31;;;;;;;12.13;5.13;;;;;;;;;;5071523;28;20201;-84
2023/10/07 12:42:59;;;;;;;14.00;4.17;;;;;;;;;;5071851;28;20233;-84
2023/10/07 12:45:30;;;;;;;6.40;2.33;;;;;;;;;;5072484;28;20302;-84
2023/10/07 12:48:03;;;;;;;12.03;3.83;;;;;;;;;;5072263;28;20203;-84
2023/10/07 12:50:33;;;;;;;4.43;3.10;;;;;;;;;;5072190;28;20205;-84
2023/10/07 12:53:04;;;;;;;14.63;6.47;;;;;;;;;;5072096;28;20203;-84
2023/10/07 12:55:34;;;;;;;8.47;5.10;;;;;;;;;;5072459;28;20227;-85
2023/10/07 12:58:05;;;;;;;9.30;2.33;;;;;;;;;;5071533;28;20248;-85
2023/10/07 13:00:36;;;;;;;11.20;4.63;;;;;;;;;;5071523;28;20214;-86
2023/10/07 13:03:05;;;;;;;7.53;3.17;;;;;;;;;;5069677;28;20214;-86
2023/10/07 13:05:37;;;;;;;6.13;3.33;;;;;;;;;;5071964;28;20212;-86
2023/10/07 13:08:12;;;;;;;7.73;4.00;;;;;;;;;;5065535;28;20237;-86
2023/10/07 13:10:41;;;;;;;7.07;3.17;;;;;;;;;;5071136;28;20211;-86
2023/10/07 13:13:13;;;;;;;11.63;3.93;;;;;;;;;;5072350;28;20202;-86
2023/10/07 13:15:42;;;;;;;13.03;4.53;;;;;;;;;;5071258;28;20210;-84
2023/10/07 13:18:13;;;;;;;7.07;4.60;;;;;;;;;;5071764;28;20232;-84
2023/10/07 13:20:46;;;;;;;16.57;6.43;;;;;;;;;;5063308;28;20309;-84
2023/10/07 13:23:16;;;;;;;9.93;4.70;;;;;;;;;;5068918;28;20261;-85
2023/10/07 13:25:50;;;;;;;2.53;2.03;;;;;;;;;;5067667;28;20227;-85
2023/10/07 13:28:23;;;;;;;12.83;4.03;;;;;;;;;;5065179;28;20201;-85
2023/10/07 13:30:52;;;;;;;6.20;3.67;;;;;;;;;;5068312;28;20269;-85
2023/10/07 13:33:22;;;;;;;9.13;4.00;;;;;;;;;;5068244;28;20221;-84
2023/10/07 13:35:52;;;;;;;11.57;4.40;;;;;;;;;;5069434;28;20244;-85
2023/10/07 13:38:23;;;;;;;9.50;3.33;;;;;;;;;;5065500;28;20212;-85
2023/10/07 13:40:52;;;;;;;12.10;3.63;;;;;;;;;;5068059;28;20208;-84
2023/10/07 13:43:20;;;;;;;8.37;3.77;;;;;;;;;;5068110;28;20215;-85
2023/10/07 13:45:49;;;;;;;10.90;3.43;;;;;;;;;;5063873;28;20210;-84
2023/10/07 13:48:17;;;;;;;6.97;2.27;;;;;;;;;;5067227;28;20197;-84
2023/10/07 13:50:46;;;;;;;5.00;3.47;;;;;;;;;;5067466;28;20198;-85
2023/10/07 13:53:16;;;;;;;6.93;3.00;;;;;;;;;;5066761;28;20213;-84
2023/10/07 13:55:55;;;;;;;3.67;3.13;;;;;;;;;;5067092;28;20198;-85
2023/10/07 13:58:24;;;;;;;7.63;4.03;;;;;;;;;;5065998;28;20257;-85
2023/10/07 14:00:53;;;;;;;5.03;3.13;;;;;;;;;;5064441;28;20217;-85
2023/10/07 14:03:29;;;;;;;6.97;3.23;;;;;;;;;;5061829;28;20236;-85
2023/10/07 14:06:01;;;;;;;11.53;4.20;;;;;;;;;;5066667;28;20205;-85
2023/10/07 14:08:35;;;;;;;22.43;5.47;;;;;;;;;;5066473;28;20201;-85
2023/10/07 14:11:06;;;;;;;11.07;4.80;;;;;;;;;;5063673;28;20200;-85
2023/10/07 14:13:36;;;;;;;7.20;3.17;;;;;;;;;;5067821;28;20206;-85
2023/10/07 14:16:09;;;;;;;12.90;4.83;;;;;;;;;;5066121;28;20286;-85
2023/10/07 14:18:45;;;;;;;7.37;2.73;;;;;;;;;;5067502;28;20233;-84
2023/10/07 14:21:14;;;;;;;6.43;3.40;;;;;;;;;;5066368;28;20824;-85
2023/10/07 14:23:44;;;;;;;11.57;4.37;;;;;;;;;;5063293;28;20228;-85
2023/10/07 14:26:13;;;;;;;16.17;5.07;;;;;;;;;;5070209;28;20210;-85
2023/10/07 14:28:44;;;;;;;5.90;3.07;;;;;;;;;;5065929;28;20217;-85
2023/10/07 14:31:13;;;;;;;10.67;3.90;;;;;;;;;;5064601;28;20197;-85
2023/10/07 14:33:43;;;;;;;10.77;4.73;;;;;;;;;;5066332;28;20197;-85
2023/10/07 14:36:11;;;;;;;5.53;3.90;;;;;;;;;;5066932;28;20209;-85
2023/10/07 14:38:41;;;;;;;16.47;5.73;;;;;;;;;;5067420;28;20230;-85
2023/10/07 14:41:13;;;;;;;7.93;4.30;;;;;;;;;;5064504;28;20202;-84
2023/10/07 14:43:43;;;;;;;13.50;5.70;;;;;;;;;;5066506;28;20221;-85
2023/10/07 14:46:12;;;;;;;8.90;3.77;;;;;;;;;;5066818;28;20204;-84
2023/10/07 14:48:42;;;;;;;7.77;4.43;;;;;;;;;;5068146;28;20199;-85
2023/10/07 14:51:11;;;;;;;6.03;3.40;;;;;;;;;;5065965;28;20239;-86
2023/10/07 14:53:40;;;;;;;16.17;3.73;;;;;;;;;;5069917;28;20194;-85
2023/10/07 14:56:15;;;;;;;4.33;3.03;;;;;;;;;;5066592;28;20203;-85
2023/10/07 14:58:47;;;;;;;8.67;3.60;;;;;;;;;;5066632;28;20197;-85
2023/10/07 15:01:21;;;;;;;11.23;4.80;;;;;;;;;;5065311;28;20207;-85
2023/10/07 15:03:51;;;;;;;13.20;6.70;;;;;;;;;;5068549;28;20232;-85
2023/10/07 15:06:21;;;;;;;3.77;1.93;;;;;;;;;;5065907;28;20483;-85
2023/10/07 15:08:50;;;;;;;8.67;3.67;;;;;;;;;;5070285;28;20210;-84
2023/10/07 15:11:23;;;;;;;11.80;2.23;;;;;;;;;;5070693;28;20216;-85
2023/10/07 15:13:53;;;;;;;11.73;5.43;;;;;;;;;;5074954;28;20195;-84
2023/10/07 15:16:25;;;;;;;8.80;2.73;;;;;;;;;;5074474;28;20204;-85